sensor_id;sensor_type;location;lat;lon;timestamp;temperature;humidity
62589;DHT22;58504;48.770;9.148;2022-09-20T00:01:29;22.00;63.30
62589;DHT22;58504;48.770;9.148;2022-09-20T00:04:00;22.00;62.60
62589;DHT22;58504;48.770;9.148;2022-09-20T00:06:30;22.00;62.50
62589;DHT22;58504;48.770;9.148;2022-09-20T00:08:57;22.00;62.40
62589;DHT22;58504;48.770;9.148;2022-09-20T00:11:28;22.00;62.50
62589;DHT22;58504;48.770;9.148;2022-09-20T00:13:57;22.00;62.50
62589;DHT22;58504;48.770;9.148;2022-09-20T00:16:27;22.00;62.50
62589;DHT22;58504;48.770;9.148;2022-09-20T00:18:56;22.00;62.50
62589;DHT22;58504;48.770;9.148;2022-09-20T00:21:25;21.90;62.40
62589;DHT22;58504;48.770;9.148;2022-09-20T00:23:52;21.90;62.30
62589;DHT22;58504;48.770;9.148;2022-09-20T00:26:19;21.90;62.30
62589;DHT22;58504;48.770;9.148;2022-09-20T00:28:46;21.90;62.30
62589;DHT22;58504;48.770;9.148;2022-09-20T00:31:14;21.90;62.30
62589;DHT22;58504;48.770;9.148;2022-09-20T00:33:41;21.90;62.30
62589;DHT22;58504;48.770;9.148;2022-09-20T00:36:26;21.90;62.40
62589;DHT22;58504;48.770;9.148;2022-09-20T00:38:54;21.90;62.30
62589;DHT22;58504;48.770;9.148;2022-09-20T00:41:21;21.90;62.40
62589;DHT22;58504;48.770;9.148;2022-09-20T00:43:48;21.90;62.30
62589;DHT22;58504;48.770;9.148;2022-09-20T00:46:21;21.90;62.40
62589;DHT22;58504;48.770;9.148;2022-09-20T00:48:50;21.90;62.40
62589;DHT22;58504;48.770;9.148;2022-09-20T00:51:23;21.80;62.30
62589;DHT22;58504;48.770;9.148;2022-09-20T00:53:52;21.80;63.20
62589;DHT22;58504;48.770;9.148;2022-09-20T00:56:23;21.80;62.30
62589;DHT22;58504;48.770;9.148;2022-09-20T00:58:55;21.80;62.30
62589;DHT22;58504;48.770;9.148;2022-09-20T01:01:25;21.90;62.40
62589;DHT22;58504;48.770;9.148;2022-09-20T01:03:52;21.80;62.40
62589;DHT22;58504;48.770;9.148;2022-09-20T01:06:19;21.80;62.30
62589;DHT22;58504;48.770;9.148;2022-09-20T01:08:50;21.80;62.30
62589;DHT22;58504;48.770;9.148;2022-09-20T01:11:18;21.80;62.30
62589;DHT22;58504;48.770;9.148;2022-09-20T01:13:45;21.80;62.30
62589;DHT22;58504;48.770;9.148;2022-09-20T01:16:14;21.80;62.30
62589;DHT22;58504;48.770;9.148;2022-09-20T01:18:43;21.80;62.30
62589;DHT22;58504;48.770;9.148;2022-09-20T01:21:12;21.80;62.30
62589;DHT22;58504;48.770;9.148;2022-09-20T01:23:47;21.70;62.20
62589;DHT22;58504;48.770;9.148;2022-09-20T01:26:36;21.70;62.10
62589;DHT22;58504;48.770;9.148;2022-09-20T01:29:12;21.70;62.20
62589;DHT22;58504;48.770;9.148;2022-09-20T01:31:45;21.70;62.20
62589;DHT22;58504;48.770;9.148;2022-09-20T01:34:18;21.70;62.20
62589;DHT22;58504;48.770;9.148;2022-09-20T01:36:50;21.70;63.00
62589;DHT22;58504;48.770;9.148;2022-09-20T01:39:24;21.70;62.20
62589;DHT22;58504;48.770;9.148;2022-09-20T01:41:57;21.70;62.30
62589;DHT22;58504;48.770;9.148;2022-09-20T01:44:30;21.70;62.30
62589;DHT22;58504;48.770;9.148;2022-09-20T01:47:04;21.70;62.30
62589;DHT22;58504;48.770;9.148;2022-09-20T01:49:41;21.70;62.30
62589;DHT22;58504;48.770;9.148;2022-09-20T01:52:30;21.70;62.30
62589;DHT22;58504;48.770;9.148;2022-09-20T01:55:28;21.60;62.20
62589;DHT22;58504;48.770;9.148;2022-09-20T01:58:34;21.60;63.00
62589;DHT22;58504;48.770;9.148;2022-09-20T02:04:34;21.60;62.20
62589;DHT22;58504;48.770;9.148;2022-09-20T02:07:17;21.60;62.20
62589;DHT22;58504;48.770;9.148;2022-09-20T02:09:57;21.60;62.20
62589;DHT22;58504;48.770;9.148;2022-09-20T02:12:50;21.60;62.20
62589;DHT22;58504;48.770;9.148;2022-09-20T02:15:33;21.60;62.30
62589;DHT22;58504;48.770;9.148;2022-09-20T02:18:17;21.60;62.20
62589;DHT22;58504;48.770;9.148;2022-09-20T02:20:51;21.60;62.20
62589;DHT22;58504;48.770;9.148;2022-09-20T02:23:33;21.60;62.30
62589;DHT22;58504;48.770;9.148;2022-09-20T02:26:10;21.50;62.20
62589;DHT22;58504;48.770;9.148;2022-09-20T02:28:51;21.50;62.20
62589;DHT22;58504;48.770;9.148;2022-09-20T02:31:31;21.50;62.20
62589;DHT22;58504;48.770;9.148;2022-09-20T02:37:13;21.50;62.20
62589;DHT22;58504;48.770;9.148;2022-09-20T02:39:47;21.50;62.20
62589;DHT22;58504;48.770;9.148;2022-09-20T02:42:21;21.50;62.20
62589;DHT22;58504;48.770;9.148;2022-09-20T02:44:58;21.50;62.30
62589;DHT22;58504;48.770;9.148;2022-09-20T02:47:31;21.50;62.20
62589;DHT22;58504;48.770;9.148;2022-09-20T02:50:13;21.50;62.20
62589;DHT22;58504;48.770;9.148;2022-09-20T02:52:53;21.50;62.20
62589;DHT22;58504;48.770;9.148;2022-09-20T02:55:31;21.50;62.20
62589;DHT22;58504;48.770;9.148;2022-09-20T02:58:08;21.50;62.30
62589;DHT22;58504;48.770;9.148;2022-09-20T03:00:43;21.50;62.30
62589;DHT22;58504;48.770;9.148;2022-09-20T03:03:20;21.50;62.30
62589;DHT22;58504;48.770;9.148;2022-09-20T03:05:52;21.50;62.30
62589;DHT22;58504;48.770;9.148;2022-09-20T03:08:33;21.50;62.30
62589;DHT22;58504;48.770;9.148;2022-09-20T03:11:11;21.50;62.40
62589;DHT22;58504;48.770;9.148;2022-09-20T03:13:51;21.40;62.20
62589;DHT22;58504;48.770;9.148;2022-09-20T03:16:30;21.50;62.30
62589;DHT22;58504;48.770;9.148;2022-09-20T03:19:03;21.40;62.20
62589;DHT22;58504;48.770;9.148;2022-09-20T03:21:42;21.40;62.20
62589;DHT22;58504;48.770;9.148;2022-09-20T03:24:20;21.40;62.20
62589;DHT22;58504;48.770;9.148;2022-09-20T03:26:55;21.40;62.20
62589;DHT22;58504;48.770;9.148;2022-09-20T03:29:33;21.40;62.20
62589;DHT22;58504;48.770;9.148;2022-09-20T03:32:10;21.40;62.30
62589;DHT22;58504;48.770;9.148;2022-09-20T03:34:47;21.40;62.30
62589;DHT22;58504;48.770;9.148;2022-09-20T03:37:49;21.40;62.30
62589;DHT22;58504;48.770;9.148;2022-09-20T03:40:47;21.40;62.30
62589;DHT22;58504;48.770;9.148;2022-09-20T03:43:25;21.40;62.30
62589;DHT22;58504;48.770;9.148;2022-09-20T03:46:04;21.40;62.30
62589;DHT22;58504;48.770;9.148;2022-09-20T03:49:03;21.40;62.30
62589;DHT22;58504;48.770;9.148;2022-09-20T03:51:42;21.30;62.20
62589;DHT22;58504;48.770;9.148;2022-09-20T03:54:43;21.40;62.40
62589;DHT22;58504;48.770;9.148;2022-09-20T03:57:43;21.30;62.20
62589;DHT22;58504;48.770;9.148;2022-09-20T04:00:21;21.30;62.30
62589;DHT22;58504;48.770;9.148;2022-09-20T04:03:06;21.30;62.10
62589;DHT22;58504;48.770;9.148;2022-09-20T04:05:47;21.30;62.20
62589;DHT22;58504;48.770;9.148;2022-09-20T04:08:26;21.30;62.20
62589;DHT22;58504;48.770;9.148;2022-09-20T04:11:01;21.30;62.30
62589;DHT22;58504;48.770;9.148;2022-09-20T04:13:35;21.30;62.30
62589;DHT22;58504;48.770;9.148;2022-09-20T04:16:14;21.30;62.20
62589;DHT22;58504;48.770;9.148;2022-09-20T04:18:45;21.30;62.30
62589;DHT22;58504;48.770;9.148;2022-09-20T04:21:18;21.30;62.30
62589;DHT22;58504;48.770;9.148;2022-09-20T04:23:52;21.30;62.20
62589;DHT22;58504;48.770;9.148;2022-09-20T04:26:25;21.30;62.30
62589;DHT22;58504;48.770;9.148;2022-09-20T04:28:57;21.30;62.30
62589;DHT22;58504;48.770;9.148;2022-09-20T04:31:34;21.30;62.30
62589;DHT22;58504;48.770;9.148;2022-09-20T04:34:04;21.30;62.30
62589;DHT22;58504;48.770;9.148;2022-09-20T04:36:57;21.30;62.40
62589;DHT22;58504;48.770;9.148;2022-09-20T04:39:36;21.30;62.60
62589;DHT22;58504;48.770;9.148;2022-09-20T04:42:46;21.30;62.70
62589;DHT22;58504;48.770;9.148;2022-09-20T04:46:06;21.30;62.90
62589;DHT22;58504;48.770;9.148;2022-09-20T05:00:56;21.30;63.20
62589;DHT22;58504;48.770;9.148;2022-09-20T05:03:44;21.30;63.20
62589;DHT22;58504;48.770;9.148;2022-09-20T05:06:32;21.30;63.30
62589;DHT22;58504;48.770;9.148;2022-09-20T05:09:25;21.30;63.30
62589;DHT22;58504;48.770;9.148;2022-09-20T05:15:07;21.30;63.40
62589;DHT22;58504;48.770;9.148;2022-09-20T05:17:49;21.30;63.40
62589;DHT22;58504;48.770;9.148;2022-09-20T05:20:40;21.40;63.40
62589;DHT22;58504;48.770;9.148;2022-09-20T05:23:40;21.40;63.50
62589;DHT22;58504;48.770;9.148;2022-09-20T05:26:16;21.40;63.40
62589;DHT22;58504;48.770;9.148;2022-09-20T05:28:51;21.40;63.30
62589;DHT22;58504;48.770;9.148;2022-09-20T05:31:25;21.40;63.40
62589;DHT22;58504;48.770;9.148;2022-09-20T05:34:01;21.40;63.30
62589;DHT22;58504;48.770;9.148;2022-09-20T05:36:42;21.40;63.30
62589;DHT22;58504;48.770;9.148;2022-09-20T05:39:20;21.40;63.10
62589;DHT22;58504;48.770;9.148;2022-09-20T05:41:53;21.40;63.10
62589;DHT22;58504;48.770;9.148;2022-09-20T05:44:40;21.40;63.00
62589;DHT22;58504;48.770;9.148;2022-09-20T05:47:17;21.40;63.10
62589;DHT22;58504;48.770;9.148;2022-09-20T05:49:56;21.50;63.10
62589;DHT22;58504;48.770;9.148;2022-09-20T05:52:37;21.50;63.10
62589;DHT22;58504;48.770;9.148;2022-09-20T05:55:35;21.50;63.00
62589;DHT22;58504;48.770;9.148;2022-09-20T05:58:30;21.50;63.10
62589;DHT22;58504;48.770;9.148;2022-09-20T06:01:03;21.50;63.00
62589;DHT22;58504;48.770;9.148;2022-09-20T06:03:36;21.50;63.00
62589;DHT22;58504;48.770;9.148;2022-09-20T06:06:12;21.50;62.90
62589;DHT22;58504;48.770;9.148;2022-09-20T06:08:55;21.50;62.90
62589;DHT22;58504;48.770;9.148;2022-09-20T06:11:42;21.60;62.80
62589;DHT22;58504;48.770;9.148;2022-09-20T06:14:19;21.60;62.60
62589;DHT22;58504;48.770;9.148;2022-09-20T06:16:55;21.60;62.40
62589;DHT22;58504;48.770;9.148;2022-09-20T06:19:31;21.60;62.40
62589;DHT22;58504;48.770;9.148;2022-09-20T06:22:04;21.70;62.50
62589;DHT22;58504;48.770;9.148;2022-09-20T06:24:41;21.70;62.20
62589;DHT22;58504;48.770;9.148;2022-09-20T06:27:13;21.70;62.00
62589;DHT22;58504;48.770;9.148;2022-09-20T06:29:43;21.70;61.90
62589;DHT22;58504;48.770;9.148;2022-09-20T06:32:15;21.70;61.80
62589;DHT22;58504;48.770;9.148;2022-09-20T06:34:42;21.70;61.80
62589;DHT22;58504;48.770;9.148;2022-09-20T06:37:22;21.70;61.60
62589;DHT22;58504;48.770;9.148;2022-09-20T06:40:17;21.80;61.50
62589;DHT22;58504;48.770;9.148;2022-09-20T06:43:04;21.80;61.30
62589;DHT22;58504;48.770;9.148;2022-09-20T06:45:31;21.80;61.20
62589;DHT22;58504;48.770;9.148;2022-09-20T06:47:58;21.80;61.30
62589;DHT22;58504;48.770;9.148;2022-09-20T06:50:26;21.80;61.20
62589;DHT22;58504;48.770;9.148;2022-09-20T06:52:54;21.90;61.30
62589;DHT22;58504;48.770;9.148;2022-09-20T06:55:26;21.90;61.30
62589;DHT22;58504;48.770;9.148;2022-09-20T06:57:54;21.90;61.40
62589;DHT22;58504;48.770;9.148;2022-09-20T07:00:21;21.90;61.60
62589;DHT22;58504;48.770;9.148;2022-09-20T07:02:48;21.90;61.80
62589;DHT22;58504;48.770;9.148;2022-09-20T07:05:17;21.80;62.10
62589;DHT22;58504;48.770;9.148;2022-09-20T07:07:46;21.80;62.30
62589;DHT22;58504;48.770;9.148;2022-09-20T07:10:14;21.80;62.20
62589;DHT22;58504;48.770;9.148;2022-09-20T07:12:41;21.80;62.10
62589;DHT22;58504;48.770;9.148;2022-09-20T07:15:09;21.80;62.20
62589;DHT22;58504;48.770;9.148;2022-09-20T07:17:35;21.80;62.30
62589;DHT22;58504;48.770;9.148;2022-09-20T07:20:02;21.80;62.40
62589;DHT22;58504;48.770;9.148;2022-09-20T07:22:29;21.80;62.20
62589;DHT22;58504;48.770;9.148;2022-09-20T07:24:56;21.80;62.30
62589;DHT22;58504;48.770;9.148;2022-09-20T07:27:28;21.80;62.20
62589;DHT22;58504;48.770;9.148;2022-09-20T07:29:55;21.80;62.20
62589;DHT22;58504;48.770;9.148;2022-09-20T07:32:22;21.80;62.30
62589;DHT22;58504;48.770;9.148;2022-09-20T07:34:49;21.80;62.20
62589;DHT22;58504;48.770;9.148;2022-09-20T07:37:16;21.80;62.10
62589;DHT22;58504;48.770;9.148;2022-09-20T07:39:43;21.90;62.10
62589;DHT22;58504;48.770;9.148;2022-09-20T07:42:10;21.90;62.10
62589;DHT22;58504;48.770;9.148;2022-09-20T07:44:39;21.80;61.80
62589;DHT22;58504;48.770;9.148;2022-09-20T07:47:07;21.90;61.70
62589;DHT22;58504;48.770;9.148;2022-09-20T07:49:34;21.90;61.40
62589;DHT22;58504;48.770;9.148;2022-09-20T07:52:02;21.90;61.20
62589;DHT22;58504;48.770;9.148;2022-09-20T07:54:29;22.00;61.30
62589;DHT22;58504;48.770;9.148;2022-09-20T07:56:56;22.00;61.30
62589;DHT22;58504;48.770;9.148;2022-09-20T07:59:22;22.00;61.20
62589;DHT22;58504;48.770;9.148;2022-09-20T08:01:51;21.90;61.10
62589;DHT22;58504;48.770;9.148;2022-09-20T08:04:18;22.00;61.00
62589;DHT22;58504;48.770;9.148;2022-09-20T08:06:45;22.00;60.90
62589;DHT22;58504;48.770;9.148;2022-09-20T08:09:12;22.00;60.70
62589;DHT22;58504;48.770;9.148;2022-09-20T08:11:40;22.00;61.40
62589;DHT22;58504;48.770;9.148;2022-09-20T08:14:11;22.00;60.40
62589;DHT22;58504;48.770;9.148;2022-09-20T08:16:40;22.10;60.30
62589;DHT22;58504;48.770;9.148;2022-09-20T08:19:12;22.10;60.10
62589;DHT22;58504;48.770;9.148;2022-09-20T08:21:39;22.20;60.20
62589;DHT22;58504;48.770;9.148;2022-09-20T08:24:06;22.20;60.10
62589;DHT22;58504;48.770;9.148;2022-09-20T08:26:33;22.20;59.80
62589;DHT22;58504;48.770;9.148;2022-09-20T08:29:02;22.30;59.80
62589;DHT22;58504;48.770;9.148;2022-09-20T08:31:31;22.30;59.70
62589;DHT22;58504;48.770;9.148;2022-09-20T08:34:01;22.30;59.70
62589;DHT22;58504;48.770;9.148;2022-09-20T08:36:32;22.50;59.80
62589;DHT22;58504;48.770;9.148;2022-09-20T08:38:59;22.70;59.70
62589;DHT22;58504;48.770;9.148;2022-09-20T08:41:29;22.90;59.50
62589;DHT22;58504;48.770;9.148;2022-09-20T08:43:59;23.10;58.70
62589;DHT22;58504;48.770;9.148;2022-09-20T08:46:29;23.20;58.50
62589;DHT22;58504;48.770;9.148;2022-09-20T08:48:58;23.50;58.20
62589;DHT22;58504;48.770;9.148;2022-09-20T08:51:31;23.70;57.70
62589;DHT22;58504;48.770;9.148;2022-09-20T08:53:59;23.70;57.50
62589;DHT22;58504;48.770;9.148;2022-09-20T08:56:34;23.80;57.40
62589;DHT22;58504;48.770;9.148;2022-09-20T08:59:02;23.80;57.30
62589;DHT22;58504;48.770;9.148;2022-09-20T09:01:29;23.80;57.40
62589;DHT22;58504;48.770;9.148;2022-09-20T09:04:03;23.70;57.50
62589;DHT22;58504;48.770;9.148;2022-09-20T09:06:35;23.70;58.10
62589;DHT22;58504;48.770;9.148;2022-09-20T09:09:01;23.60;57.80
62589;DHT22;58504;48.770;9.148;2022-09-20T09:11:28;23.50;58.00
62589;DHT22;58504;48.770;9.148;2022-09-20T09:13:57;23.40;58.10
62589;DHT22;58504;48.770;9.148;2022-09-20T09:16:29;23.40;58.20
62589;DHT22;58504;48.770;9.148;2022-09-20T09:18:56;23.50;58.00
62589;DHT22;58504;48.770;9.148;2022-09-20T09:21:24;23.50;57.70
62589;DHT22;58504;48.770;9.148;2022-09-20T09:23:56;23.60;57.80
62589;DHT22;58504;48.770;9.148;2022-09-20T09:26:28;23.50;58.00
62589;DHT22;58504;48.770;9.148;2022-09-20T09:29:10;23.40;58.20
62589;DHT22;58504;48.770;9.148;2022-09-20T09:31:39;23.50;58.00
62589;DHT22;58504;48.770;9.148;2022-09-20T09:34:25;23.60;57.50
62589;DHT22;58504;48.770;9.148;2022-09-20T09:36:52;23.80;57.90
62589;DHT22;58504;48.770;9.148;2022-09-20T09:39:24;23.90;57.90
62589;DHT22;58504;48.770;9.148;2022-09-20T09:41:52;23.90;57.70
62589;DHT22;58504;48.770;9.148;2022-09-20T09:44:22;23.80;57.60
62589;DHT22;58504;48.770;9.148;2022-09-20T09:46:49;23.80;57.90
62589;DHT22;58504;48.770;9.148;2022-09-20T09:49:19;23.70;58.20
62589;DHT22;58504;48.770;9.148;2022-09-20T09:52:00;23.60;58.20
62589;DHT22;58504;48.770;9.148;2022-09-20T09:54:31;23.50;58.30
62589;DHT22;58504;48.770;9.148;2022-09-20T09:57:10;23.40;58.60
62589;DHT22;58504;48.770;9.148;2022-09-20T09:59:59;23.40;59.10
62589;DHT22;58504;48.770;9.148;2022-09-20T10:02:48;23.30;59.40
62589;DHT22;58504;48.770;9.148;2022-09-20T10:05:21;23.30;59.60
62589;DHT22;58504;48.770;9.148;2022-09-20T10:07:56;23.30;59.70
62589;DHT22;58504;48.770;9.148;2022-09-20T10:10:30;23.30;59.80
62589;DHT22;58504;48.770;9.148;2022-09-20T10:13:09;23.30;59.90
62589;DHT22;58504;48.770;9.148;2022-09-20T10:15:43;23.10;49.50
62589;DHT22;58504;48.770;9.148;2022-09-20T10:18:30;22.60;49.90
62589;DHT22;58504;48.770;9.148;2022-09-20T10:21:07;22.30;51.60
62589;DHT22;58504;48.770;9.148;2022-09-20T10:24:07;22.20;53.40
62589;DHT22;58504;48.770;9.148;2022-09-20T10:26:51;22.20;56.70
62589;DHT22;58504;48.770;9.148;2022-09-20T10:29:30;22.30;57.80
62589;DHT22;58504;48.770;9.148;2022-09-20T10:32:12;22.50;58.20
62589;DHT22;58504;48.770;9.148;2022-09-20T10:35:02;22.60;58.20
62589;DHT22;58504;48.770;9.148;2022-09-20T10:37:41;22.80;58.20
62589;DHT22;58504;48.770;9.148;2022-09-20T10:40:20;23.00;58.00
62589;DHT22;58504;48.770;9.148;2022-09-20T10:42:53;23.20;57.90
62589;DHT22;58504;48.770;9.148;2022-09-20T10:45:45;23.20;57.80
62589;DHT22;58504;48.770;9.148;2022-09-20T10:48:23;23.30;57.80
62589;DHT22;58504;48.770;9.148;2022-09-20T10:50:58;23.20;58.00
62589;DHT22;58504;48.770;9.148;2022-09-20T10:53:34;23.20;58.10
62589;DHT22;58504;48.770;9.148;2022-09-20T10:56:15;23.20;58.40
62589;DHT22;58504;48.770;9.148;2022-09-20T10:59:23;23.10;58.60
62589;DHT22;58504;48.770;9.148;2022-09-20T11:02:02;23.10;58.80
62589;DHT22;58504;48.770;9.148;2022-09-20T11:04:50;23.10;59.50
62589;DHT22;58504;48.770;9.148;2022-09-20T11:07:28;23.10;59.10
62589;DHT22;58504;48.770;9.148;2022-09-20T11:10:01;23.10;59.10
62589;DHT22;58504;48.770;9.148;2022-09-20T11:12:35;23.20;59.10
62589;DHT22;58504;48.770;9.148;2022-09-20T11:15:11;23.20;59.00
62589;DHT22;58504;48.770;9.148;2022-09-20T11:17:44;23.30;59.00
62589;DHT22;58504;48.770;9.148;2022-09-20T11:20:16;23.40;59.20
62589;DHT22;58504;48.770;9.148;2022-09-20T11:22:47;23.40;58.40
62589;DHT22;58504;48.770;9.148;2022-09-20T11:25:19;23.40;58.40
62589;DHT22;58504;48.770;9.148;2022-09-20T11:27:50;23.50;58.30
62589;DHT22;58504;48.770;9.148;2022-09-20T11:30:21;23.60;58.40
62589;DHT22;58504;48.770;9.148;2022-09-20T11:32:51;23.60;58.40
62589;DHT22;58504;48.770;9.148;2022-09-20T11:35:27;23.60;58.40
62589;DHT22;58504;48.770;9.148;2022-09-20T11:38:07;23.70;58.40
62589;DHT22;58504;48.770;9.148;2022-09-20T11:40:38;23.70;58.40
62589;DHT22;58504;48.770;9.148;2022-09-20T11:43:07;23.70;58.10
62589;DHT22;58504;48.770;9.148;2022-09-20T11:45:38;23.70;58.10
62589;DHT22;58504;48.770;9.148;2022-09-20T11:48:11;23.70;58.20
62589;DHT22;58504;48.770;9.148;2022-09-20T11:51:08;23.60;58.20
62589;DHT22;58504;48.770;9.148;2022-09-20T11:54:00;23.50;58.40
62589;DHT22;58504;48.770;9.148;2022-09-20T11:56:30;23.50;58.80
62589;DHT22;58504;48.770;9.148;2022-09-20T11:59:02;23.40;59.00
62589;DHT22;58504;48.770;9.148;2022-09-20T12:01:33;23.30;58.90
62589;DHT22;58504;48.770;9.148;2022-09-20T12:04:03;23.30;58.70
62589;DHT22;58504;48.770;9.148;2022-09-20T12:06:34;23.40;58.90
62589;DHT22;58504;48.770;9.148;2022-09-20T12:09:06;23.40;58.90
62589;DHT22;58504;48.770;9.148;2022-09-20T12:11:35;23.40;58.90
62589;DHT22;58504;48.770;9.148;2022-09-20T12:14:06;23.40;58.80
62589;DHT22;58504;48.770;9.148;2022-09-20T12:16:39;23.60;58.80
62589;DHT22;58504;48.770;9.148;2022-09-20T12:19:09;23.60;58.80
62589;DHT22;58504;48.770;9.148;2022-09-20T12:24:40;23.70;58.30
62589;DHT22;58504;48.770;9.148;2022-09-20T12:27:20;23.80;58.30
62589;DHT22;58504;48.770;9.148;2022-09-20T12:30:00;23.80;58.00
62589;DHT22;58504;48.770;9.148;2022-09-20T12:32:54;23.90;58.10
62589;DHT22;58504;48.770;9.148;2022-09-20T12:41:18;24.10;57.70
62589;DHT22;58504;48.770;9.148;2022-09-20T12:43:56;24.20;58.00
62589;DHT22;58504;48.770;9.148;2022-09-20T12:46:34;24.30;57.80
62589;DHT22;58504;48.770;9.148;2022-09-20T12:52:29;24.50;57.10
62589;DHT22;58504;48.770;9.148;2022-09-20T12:55:30;24.50;57.10
62589;DHT22;58504;48.770;9.148;2022-09-20T12:58:01;24.50;57.10
62589;DHT22;58504;48.770;9.148;2022-09-20T13:00:33;24.60;57.20
62589;DHT22;58504;48.770;9.148;2022-09-20T13:03:11;24.70;57.10
62589;DHT22;58504;48.770;9.148;2022-09-20T13:05:41;24.80;56.70
62589;DHT22;58504;48.770;9.148;2022-09-20T13:08:16;25.10;56.10
62589;DHT22;58504;48.770;9.148;2022-09-20T13:10:47;25.60;55.00
62589;DHT22;58504;48.770;9.148;2022-09-20T13:13:32;26.10;53.80
62589;DHT22;58504;48.770;9.148;2022-09-20T13:16:02;26.70;52.40
62589;DHT22;58504;48.770;9.148;2022-09-20T13:18:30;27.30;50.90
62589;DHT22;58504;48.770;9.148;2022-09-20T13:20:59;27.80;49.70
62589;DHT22;58504;48.770;9.148;2022-09-20T13:23:31;27.90;49.10
62589;DHT22;58504;48.770;9.148;2022-09-20T13:26:00;28.10;48.70
62589;DHT22;58504;48.770;9.148;2022-09-20T13:28:33;27.80;48.90
62589;DHT22;58504;48.770;9.148;2022-09-20T13:31:31;27.40;49.80
62589;DHT22;58504;48.770;9.148;2022-09-20T13:34:16;26.80;51.00
62589;DHT22;58504;48.770;9.148;2022-09-20T13:36:47;26.30;52.20
62589;DHT22;58504;48.770;9.148;2022-09-20T13:39:32;25.90;53.20
62589;DHT22;58504;48.770;9.148;2022-09-20T13:42:04;25.60;54.10
62589;DHT22;58504;48.770;9.148;2022-09-20T13:44:33;25.30;54.90
62589;DHT22;58504;48.770;9.148;2022-09-20T13:47:19;25.00;56.00
62589;DHT22;58504;48.770;9.148;2022-09-20T13:49:47;25.00;55.80
62589;DHT22;58504;48.770;9.148;2022-09-20T13:52:23;25.00;55.80
62589;DHT22;58504;48.770;9.148;2022-09-20T13:54:50;24.90;56.00
62589;DHT22;58504;48.770;9.148;2022-09-20T13:57:20;24.80;56.30
62589;DHT22;58504;48.770;9.148;2022-09-20T13:59:48;24.60;56.40
62589;DHT22;58504;48.770;9.148;2022-09-20T14:02:21;24.50;56.60
62589;DHT22;58504;48.770;9.148;2022-09-20T14:04:50;24.30;56.90
62589;DHT22;58504;48.770;9.148;2022-09-20T14:07:21;24.20;57.30
62589;DHT22;58504;48.770;9.148;2022-09-20T14:09:50;24.10;57.50
62589;DHT22;58504;48.770;9.148;2022-09-20T14:12:17;24.00;57.60
62589;DHT22;58504;48.770;9.148;2022-09-20T14:14:45;23.80;57.80
62589;DHT22;58504;48.770;9.148;2022-09-20T14:17:15;23.80;58.10
62589;DHT22;58504;48.770;9.148;2022-09-20T14:19:46;23.70;58.20
62589;DHT22;58504;48.770;9.148;2022-09-20T14:22:18;23.60;58.40
62589;DHT22;58504;48.770;9.148;2022-09-20T14:24:59;23.60;58.60
62589;DHT22;58504;48.770;9.148;2022-09-20T14:27:26;23.60;58.80
62589;DHT22;58504;48.770;9.148;2022-09-20T14:29:55;23.60;58.80
62589;DHT22;58504;48.770;9.148;2022-09-20T14:32:38;23.50;58.70
62589;DHT22;58504;48.770;9.148;2022-09-20T14:35:14;23.50;58.90
62589;DHT22;58504;48.770;9.148;2022-09-20T14:37:43;23.40;59.00
62589;DHT22;58504;48.770;9.148;2022-09-20T14:40:25;23.40;59.10
62589;DHT22;58504;48.770;9.148;2022-09-20T14:42:54;23.30;59.00
62589;DHT22;58504;48.770;9.148;2022-09-20T14:45:25;23.30;59.30
62589;DHT22;58504;48.770;9.148;2022-09-20T14:47:59;23.20;59.50
62589;DHT22;58504;48.770;9.148;2022-09-20T14:50:29;23.20;59.50
62589;DHT22;58504;48.770;9.148;2022-09-20T14:53:18;23.20;59.50
62589;DHT22;58504;48.770;9.148;2022-09-20T14:55:57;23.20;59.30
62589;DHT22;58504;48.770;9.148;2022-09-20T14:58:24;23.20;59.30
62589;DHT22;58504;48.770;9.148;2022-09-20T15:00:54;23.20;59.20
62589;DHT22;58504;48.770;9.148;2022-09-20T15:03:25;23.20;59.10
62589;DHT22;58504;48.770;9.148;2022-09-20T15:05:52;23.20;59.10
62589;DHT22;58504;48.770;9.148;2022-09-20T15:08:19;23.10;59.20
62589;DHT22;58504;48.770;9.148;2022-09-20T15:10:46;23.20;59.20
62589;DHT22;58504;48.770;9.148;2022-09-20T15:13:14;23.10;59.20
62589;DHT22;58504;48.770;9.148;2022-09-20T15:15:41;23.10;59.10
62589;DHT22;58504;48.770;9.148;2022-09-20T15:18:17;23.10;59.00
62589;DHT22;58504;48.770;9.148;2022-09-20T15:20:45;23.10;59.30
62589;DHT22;58504;48.770;9.148;2022-09-20T15:23:12;23.10;59.30
62589;DHT22;58504;48.770;9.148;2022-09-20T15:25:38;23.20;59.30
62589;DHT22;58504;48.770;9.148;2022-09-20T15:28:05;23.20;59.20
62589;DHT22;58504;48.770;9.148;2022-09-20T15:30:35;23.20;59.50
62589;DHT22;58504;48.770;9.148;2022-09-20T15:33:02;23.20;59.60
62589;DHT22;58504;48.770;9.148;2022-09-20T15:35:28;23.20;59.60
62589;DHT22;58504;48.770;9.148;2022-09-20T15:37:55;23.30;59.00
62589;DHT22;58504;48.770;9.148;2022-09-20T15:40:22;23.30;59.00
62589;DHT22;58504;48.770;9.148;2022-09-20T15:42:54;23.30;58.70
62589;DHT22;58504;48.770;9.148;2022-09-20T15:45:21;23.30;58.40
62589;DHT22;58504;48.770;9.148;2022-09-20T15:47:50;23.40;58.60
62589;DHT22;58504;48.770;9.148;2022-09-20T15:50:19;23.30;58.60
62589;DHT22;58504;48.770;9.148;2022-09-20T15:52:47;23.30;58.80
62589;DHT22;58504;48.770;9.148;2022-09-20T15:55:16;23.30;58.50
62589;DHT22;58504;48.770;9.148;2022-09-20T15:57:43;23.30;58.90
62589;DHT22;58504;48.770;9.148;2022-09-20T16:00:10;23.30;59.10
62589;DHT22;58504;48.770;9.148;2022-09-20T16:02:37;23.20;59.00
62589;DHT22;58504;48.770;9.148;2022-09-20T16:05:06;23.20;59.40
62589;DHT22;58504;48.770;9.148;2022-09-20T16:07:34;23.20;59.50
62589;DHT22;58504;48.770;9.148;2022-09-20T16:10:01;23.10;59.50
62589;DHT22;58504;48.770;9.148;2022-09-20T16:12:28;23.00;59.50
62589;DHT22;58504;48.770;9.148;2022-09-20T16:14:54;23.00;59.60
62589;DHT22;58504;48.770;9.148;2022-09-20T16:17:21;23.00;59.60
62589;DHT22;58504;48.770;9.148;2022-09-20T16:20:09;22.90;59.70
62589;DHT22;58504;48.770;9.148;2022-09-20T16:22:35;22.80;59.70
62589;DHT22;58504;48.770;9.148;2022-09-20T16:25:02;22.80;59.70
62589;DHT22;58504;48.770;9.148;2022-09-20T16:27:30;22.80;59.70
62589;DHT22;58504;48.770;9.148;2022-09-20T16:30:00;22.70;59.80
62589;DHT22;58504;48.770;9.148;2022-09-20T16:32:26;22.70;60.00
62589;DHT22;58504;48.770;9.148;2022-09-20T16:34:53;22.60;60.10
62589;DHT22;58504;48.770;9.148;2022-09-20T16:37:21;22.60;60.30
62589;DHT22;58504;48.770;9.148;2022-09-20T16:39:49;22.60;60.30
62589;DHT22;58504;48.770;9.148;2022-09-20T16:42:15;22.50;60.30
62589;DHT22;58504;48.770;9.148;2022-09-20T16:44:42;22.50;60.50
62589;DHT22;58504;48.770;9.148;2022-09-20T16:47:11;22.50;60.60
62589;DHT22;58504;48.770;9.148;2022-09-20T16:49:42;22.50;60.70